Airfield :







YOU CAN JOIN US ON...

 
LOGIN :

Register | Disclaimer

   EN    FR    IT 

 









Legend :    VFR   Marginal VFR   IFR   Intensive IFR   Very Intensive IFR
Visi :
Ceiling :
>= 8 km
>= 3000ft
5 to 8 km
1000 to 3000 ft
1500m to 5 km
500 to 1000 ft
800 to 1500m
200 to 500 ft
< 800m
< 200 ft
Symbols :   Thunderstorms  Fog  Heavy snow  Heavy precipitations  Wind > 20 kt






- Airport Elevation : 48 ft
- IATA code : REK


BIRK - Reykjavik

CURRENT METAR :
  • 241000Z 13006KT 9999 FEW028 BKN046 BKN060 M00/M04 Q1001

EXPIRED METARs :
  • 240900Z 21006KT 9999 -SHSN FEW020 BKN038 OVC060 01/M04 Q1001
  • 240800Z 24013KT 9999 VCSH FEW025 OVC034 01/M05 Q1001 R88/CLRD//

TAF TAF BIRK
Valid from the 24 at 09:00 until the 25 at 09:00 UTC


240728Z 2409/2509 21008KT 9999 -SHSN SCT020 BKN030 TX02/2509Z TNM01/2418Z
BECMG 2415/2417 10013KT
BECMG 2420/2422 08023KT 8000 -SN BKN018
BECMG 2501/2503 08026G38KT
BECMG 2503/2505 9999 -RA



MET'MAP, your aeronautical weather chart ! - Copyright ORBIFLY December 2007 - Disclaimer

ORBIFLY MET'MAP TEAM :

Programming & Development : Alexandra Zaïnal
Concept & original design : Baudouin d'Aumeries
Assistance for programming : Marc-Olivier Méhu
Technical & hardware support : Manuel Goepfert

Contact : metmap@orbifly.com




SOURCES & CREDITS :

   NOAA